KGCY/GCY METAR and TAF weather

Enter ICAO airport designator
Station Type Date Time Source
KGCY METAR 2020/07/12 00:35 UTC NOAA

KGCY 120035Z AUTO 27003KT 10SM CLR 26/16 A2993 RMK A01


Station Type Date Time Source
KGCY Decoded METAR 2020/07/12 00:35 UTC NOAA

Station name not available
Jul 11, 2020 - 08:35 PM EDT / 2020.07.12 0035 UTC
Wind: from the W (270 degrees) at 3 MPH (3 KT):0
Visibility: 10 mile(s):0
Sky conditions: clear
Temperature: 78 F (26 C)
Dew Point: 60 F (16 C)
Relative Humidity: 54%
Pressure (altimeter): 29.93 in. Hg (1013 hPa)
ob: KGCY 120035Z AUTO 27003KT 10SM CLR 26/16 A2993 RMK A01
cycle: 0

Station Type Date Time Source
KGCY TAF UTC NOAA

Error!

Example: see airport list